Time;durP1;ratioP1;P1;durP2;ratioP2;P2;SDS_P1;SDS_P2;PMS_P1;PMS_P2;Temp;Humidity;BMP_temperature;BMP_pressure;BME280_temperature;BME280_humidity;BME280_pressure;Samples;Min_cycle;Max_cycle;Signal;HPM_P1;HPM_P2
2022/03/30 00:00:32;;;;;;;41.10;20.17;;;;;;;6.14;nan;98672.75;5072999;28;20048;-80
2022/03/30 00:03:06;;;;;;;40.85;20.73;;;;;;;6.13;nan;98676.41;5074488;28;20127;-76
2022/03/30 00:05:36;;;;;;;46.33;21.45;;;;;;;6.12;nan;98680.03;5072778;28;20056;-79
2022/03/30 00:08:04;;;;;;;41.63;20.73;;;;;;;6.01;nan;98676.16;5072836;28;20045;-80
2022/03/30 00:10:33;;;;;;;38.92;21.17;;;;;;;5.99;nan;98678.03;5072925;28;20094;-77
2022/03/30 00:13:01;;;;;;;44.33;20.65;;;;;;;6.01;nan;98684.19;5054802;28;20388;-79
2022/03/30 00:15:29;;;;;;;38.67;20.40;;;;;;;5.92;nan;98685.53;5072855;28;20510;-81
2022/03/30 00:17:57;;;;;;;42.40;20.55;;;;;;;5.90;nan;98676.72;5078555;28;20072;-80
2022/03/30 00:20:26;;;;;;;40.95;20.70;;;;;;;5.94;nan;98672.91;5094202;28;20048;-78
2022/03/30 00:22:54;;;;;;;41.78;20.50;;;;;;;5.92;nan;98677.47;5062619;28;20052;-79
2022/03/30 00:25:22;;;;;;;45.88;22.38;;;;;;;5.98;nan;98676.28;5076519;28;20048;-81
2022/03/30 00:27:49;;;;;;;40.92;21.25;;;;;;;6.05;nan;98680.38;5076573;28;20051;-78
2022/03/30 00:30:18;;;;;;;38.95;20.90;;;;;;;5.96;nan;98675.50;5076079;28;20515;-77
2022/03/30 00:32:46;;;;;;;38.35;21.02;;;;;;;5.95;nan;98676.47;5076429;28;20538;-76
2022/03/30 00:35:15;;;;;;;40.90;21.42;;;;;;;5.97;nan;98674.56;5076402;28;20688;-79
2022/03/30 00:37:44;;;;;;;44.22;20.77;;;;;;;6.04;nan;98670.63;5076383;28;20460;-78
2022/03/30 00:40:14;;;;;;;39.20;20.20;;;;;;;6.00;nan;98686.91;5076322;28;20450;-76
2022/03/30 00:42:42;;;;;;;38.47;20.67;;;;;;;5.92;nan;98685.53;5058407;28;20051;-82
2022/03/30 00:45:11;;;;;;;41.80;20.48;;;;;;;5.99;nan;98675.34;5075755;28;20118;-80
2022/03/30 00:47:42;;;;;;;40.92;20.65;;;;;;;5.93;nan;98681.03;5076241;28;20123;-77
2022/03/30 00:50:13;;;;;;;37.55;19.38;;;;;;;5.87;nan;98684.03;5076118;28;20127;-78
2022/03/30 00:52:41;;;;;;;40.17;20.27;;;;;;;5.84;nan;98682.41;5076942;28;20480;-78
2022/03/30 00:55:10;;;;;;;41.38;21.30;;;;;;;5.82;nan;98672.72;5076080;28;20119;-78
2022/03/30 00:57:39;;;;;;;40.58;20.73;;;;;;;5.87;nan;98678.69;5075752;28;20132;-76
2022/03/30 01:00:08;;;;;;;43.50;21.40;;;;;;;5.79;nan;98679.97;5075532;28;20102;-79
2022/03/30 01:02:38;;;;;;;42.40;22.05;;;;;;;5.73;nan;98674.13;5075855;28;20094;-76
2022/03/30 01:05:07;;;;;;;51.95;23.73;;;;;;;5.77;nan;98676.50;5077682;28;20490;-77
2022/03/30 01:07:35;;;;;;;46.47;22.73;;;;;;;5.73;nan;98679.47;5075758;28;20573;-81
2022/03/30 01:10:04;;;;;;;54.72;25.90;;;;;;;5.70;nan;98675.13;5075865;28;20468;-78
2022/03/30 01:12:38;;;;;;;43.92;22.55;;;;;;;5.67;nan;98677.97;5075195;28;20047;-77
2022/03/30 01:15:07;;;;;;;44.22;20.67;;;;;;;5.63;nan;98668.38;5074268;28;20090;-79
2022/03/30 01:17:37;;;;;;;41.30;21.50;;;;;;;5.63;nan;98665.72;5078212;28;20050;-76
2022/03/30 01:20:05;;;;;;;42.08;21.92;;;;;;;5.57;nan;98671.41;5095686;28;20076;-77
2022/03/30 01:22:35;;;;;;;41.45;21.33;;;;;;;5.57;nan;98660.69;5082855;28;20545;-77
2022/03/30 01:25:03;;;;;;;48.08;22.17;;;;;;;5.60;nan;98660.50;5075255;28;20071;-78
2022/03/30 01:27:31;;;;;;;40.83;21.83;;;;;;;5.62;nan;98662.16;5075400;28;20110;-76
2022/03/30 01:32:45;;;;;;;43.40;21.33;;;;;;;5.38;nan;98666.16;5074257;28;20051;-77
2022/03/30 01:35:13;;;;;;;40.30;20.92;;;;;;;5.34;nan;98665.47;5075294;28;20123;-79
2022/03/30 01:37:42;;;;;;;49.45;23.02;;;;;;;5.32;nan;98660.22;5075241;28;20047;-77
2022/03/30 01:40:10;;;;;;;43.40;21.95;;;;;;;5.15;nan;98653.06;5075179;28;20044;-78
2022/03/30 01:42:38;;;;;;;53.30;24.70;;;;;;;5.14;nan;98659.38;5075068;28;20068;-77
2022/03/30 01:45:06;;;;;;;46.88;22.65;;;;;;;5.13;nan;98660.31;5075175;28;20055;-77
2022/03/30 01:47:34;;;;;;;46.25;22.33;;;;;;;5.20;nan;98659.03;5075108;28;20123;-79
2022/03/30 01:50:01;;;;;;;44.35;22.52;;;;;;;5.05;nan;98665.19;5075107;28;20047;-76
2022/03/30 01:52:29;;;;;;;43.10;22.17;;;;;;;5.10;nan;98664.97;5074900;28;20048;-76
2022/03/30 01:54:58;;;;;;;42.05;22.23;;;;;;;5.03;nan;98667.06;5074888;28;20193;-78
2022/03/30 01:57:27;;;;;;;42.05;21.98;;;;;;;5.02;nan;98662.66;5074503;28;20070;-76
2022/03/30 01:59:54;;;;;;;44.25;21.42;;;;;;;5.02;nan;98658.19;5074681;28;20040;-76
2022/03/30 02:02:22;;;;;;;40.63;20.35;;;;;;;5.06;nan;98662.44;5074870;28;20600;-77
2022/03/30 02:04:50;;;;;;;42.22;21.42;;;;;;;5.15;nan;98660.22;5074821;28;20068;-78
2022/03/30 02:07:20;;;;;;;45.88;21.73;;;;;;;5.07;nan;98656.16;5074809;28;20068;-75
2022/03/30 02:09:48;;;;;;;39.83;20.98;;;;;;;4.95;nan;98663.94;5076404;28;20048;-76
2022/03/30 02:12:18;;;;;;;41.72;21.42;;;;;;;4.89;nan;98652.63;5074398;28;20132;-77
2022/03/30 02:14:46;;;;;;;48.42;21.55;;;;;;;5.05;nan;98651.81;5074528;28;20128;-81
2022/03/30 02:17:14;;;;;;;42.53;21.75;;;;;;;5.06;nan;98646.38;5074761;28;20040;-81
2022/03/30 02:19:42;;;;;;;45.45;21.27;;;;;;;5.12;nan;98657.72;5094424;28;20074;-81
2022/03/30 02:22:11;;;;;;;42.92;21.30;;;;;;;5.07;nan;98657.94;5085059;28;20398;-80
2022/03/30 02:24:39;;;;;;;43.80;22.45;;;;;;;5.04;nan;98650.06;5074127;28;20047;-79
2022/03/30 02:27:07;;;;;;;45.53;23.50;;;;;;;4.93;nan;98654.19;5073880;28;20071;-81
2022/03/30 02:29:36;;;;;;;42.58;21.65;;;;;;;4.95;nan;98655.91;5074273;28;20072;-80
2022/03/30 02:32:05;;;;;;;43.55;20.23;;;;;;;4.91;nan;98648.03;5074052;28;20114;-81
2022/03/30 02:34:32;;;;;;;44.08;21.95;;;;;;;4.88;nan;98656.25;5074126;28;20127;-81
2022/03/30 02:37:01;;;;;;;46.13;23.17;;;;;;;4.82;nan;98648.53;5074078;28;20064;-81
2022/03/30 02:39:29;;;;;;;41.83;21.98;;;;;;;4.58;nan;98659.53;5073929;28;20561;-81
2022/03/30 02:41:56;;;;;;;44.58;23.17;;;;;;;4.57;nan;98659.63;5073609;28;20048;-77
2022/03/30 02:44:24;;;;;;;49.22;22.13;;;;;;;4.44;nan;98662.03;5056139;28;20056;-79
2022/03/30 02:46:54;;;;;;;40.58;21.70;;;;;;;4.48;nan;98655.59;5073790;28;20048;-80
2022/03/30 02:49:21;;;;;;;50.10;24.02;;;;;;;4.49;nan;98665.34;5073862;28;20048;-81
2022/03/30 02:51:49;;;;;;;67.97;27.95;;;;;;;4.43;nan;98668.34;5073823;28;20044;-79
2022/03/30 02:54:16;;;;;;;46.50;23.20;;;;;;;4.30;nan;98668.94;5073883;28;20044;-77
2022/03/30 02:56:44;;;;;;;44.20;22.35;;;;;;;4.43;nan;98665.66;5073385;28;20464;-80
2022/03/30 02:59:12;;;;;;;41.63;21.35;;;;;;;4.23;nan;98667.50;5073840;28;20531;-77
2022/03/30 03:01:40;;;;;;;53.53;27.80;;;;;;;4.16;nan;98661.59;5073507;28;20119;-80
2022/03/30 03:04:09;;;;;;;50.60;26.83;;;;;;;4.21;nan;98661.38;5073470;28;20041;-76
2022/03/30 03:06:37;;;;;;;47.63;23.65;;;;;;;4.29;nan;98664.53;5073367;28;20044;-80
2022/03/30 03:09:05;;;;;;;44.58;22.90;;;;;;;4.13;nan;98667.09;5073397;28;20048;-80
2022/03/30 03:11:33;;;;;;;60.72;31.73;;;;;;;4.14;nan;98671.50;5073110;28;20045;-80
2022/03/30 03:14:05;;;;;;;47.03;24.60;;;;;;;4.16;nan;98661.59;5073414;28;20491;-78
2022/03/30 03:16:33;;;;;;;43.83;22.40;;;;;;;4.11;nan;98668.09;5074616;28;20124;-80
2022/03/30 03:19:01;;;;;;;48.95;27.95;;;;;;;4.04;nan;98665.72;5088313;28;20507;-79
2022/03/30 03:21:30;;;;;;;57.55;32.95;;;;;;;4.02;nan;98661.38;5089805;28;20098;-77
2022/03/30 03:23:57;;;;;;;86.85;47.50;;;;;;;4.08;nan;98660.25;5072917;28;20054;-80
2022/03/30 03:26:25;;;;;;;191.70;83.10;;;;;;;4.09;nan;98667.31;5072817;28;20098;-80
2022/03/30 03:28:53;;;;;;;94.97;42.88;;;;;;;4.09;nan;98661.97;5073402;28;20048;-78
2022/03/30 03:31:20;;;;;;;65.72;30.90;;;;;;;4.00;nan;98664.16;5073268;28;20055;-76
2022/03/30 03:33:49;;;;;;;47.13;23.65;;;;;;;4.08;nan;98662.91;5073128;28;20120;-80
2022/03/30 03:36:16;;;;;;;50.70;23.02;;;;;;;4.04;nan;98662.19;5073126;28;20435;-80
2022/03/30 03:38:45;;;;;;;48.25;23.55;;;;;;;4.06;nan;98669.19;5072655;28;20052;-77
2022/03/30 03:41:13;;;;;;;43.67;23.10;;;;;;;3.96;nan;98659.91;5055279;28;20491;-76
2022/03/30 03:43:41;;;;;;;52.40;25.98;;;;;;;3.95;nan;98666.19;5072916;28;20048;-79
2022/03/30 03:46:08;;;;;;;45.55;23.63;;;;;;;4.09;nan;98667.31;5073015;28;20044;-81
2022/03/30 03:48:39;;;;;;;50.63;25.42;;;;;;;4.04;nan;98667.53;5073110;28;20124;-76
2022/03/30 03:51:06;;;;;;;66.15;29.67;;;;;;;4.19;nan;98666.81;5072954;28;20048;-77
2022/03/30 03:53:35;;;;;;;64.03;29.65;;;;;;;4.20;nan;98663.19;5072579;28;20048;-81
2022/03/30 03:56:04;;;;;;;68.55;32.28;;;;;;;4.21;nan;98666.72;5078007;28;20109;-80
2022/03/30 03:58:32;;;;;;;50.55;24.70;;;;;;;4.34;nan;98666.97;5079615;28;20051;-78
2022/03/30 04:00:59;;;;;;;48.63;25.42;;;;;;;4.22;nan;98668.44;5079657;28;20132;-76
2022/03/30 04:03:28;;;;;;;50.53;24.98;;;;;;;4.31;nan;98662.66;5079575;28;20407;-80
2022/03/30 04:05:55;;;;;;;57.30;26.08;;;;;;;4.17;nan;98670.47;5079347;28;20044;-79
2022/03/30 04:08:23;;;;;;;50.42;25.10;;;;;;;4.27;nan;98662.88;5079174;28;20121;-77
2022/03/30 04:10:53;;;;;;;56.58;27.17;;;;;;;4.14;nan;98670.63;5078681;28;20094;-78
2022/03/30 04:13:23;;;;;;;50.17;25.33;;;;;;;4.19;nan;98665.91;5076175;28;20372;-82
2022/03/30 04:15:51;;;;;;;52.30;26.25;;;;;;;4.07;nan;98670.03;5076016;28;20057;-77
2022/03/30 04:18:19;;;;;;;53.05;26.17;;;;;;;4.11;nan;98670.78;5084587;28;20054;-77
2022/03/30 04:20:46;;;;;;;51.35;25.48;;;;;;;4.06;nan;98663.84;5096732;28;20043;-79
2022/03/30 04:23:16;;;;;;;52.03;25.15;;;;;;;4.02;nan;98664.06;5076878;28;20040;-77
2022/03/30 04:25:43;;;;;;;54.28;26.30;;;;;;;3.98;nan;98670.50;5075668;28;20056;-78
2022/03/30 04:28:15;;;;;;;57.67;28.40;;;;;;;3.99;nan;98665.09;5075587;28;20335;-78
2022/03/30 04:30:44;;;;;;;52.67;25.95;;;;;;;3.95;nan;98676.00;5076330;28;20048;-79
2022/03/30 04:33:12;;;;;;;57.88;27.45;;;;;;;3.84;nan;98673.81;5075807;28;20367;-76
2022/03/30 04:35:39;;;;;;;54.13;26.88;;;;;;;3.95;nan;98676.00;5075528;28;20445;-73
2022/03/30 04:38:07;;;;;;;61.28;29.77;;;;;;;4.00;nan;98680.19;5074615;28;20090;-77
2022/03/30 04:40:37;;;;;;;59.22;30.42;;;;;;;4.01;nan;98679.25;5075600;28;20052;-78
2022/03/30 04:43:06;;;;;;;60.97;29.67;;;;;;;4.03;nan;98676.47;5075696;28;20127;-77
2022/03/30 04:45:33;;;;;;;64.47;28.80;;;;;;;3.94;nan;98674.25;5075660;28;20044;-76
2022/03/30 04:48:02;;;;;;;53.92;27.63;;;;;;;4.01;nan;98675.69;5057717;28;20052;-78
2022/03/30 04:50:30;;;;;;;52.55;27.05;;;;;;;3.99;nan;98675.78;5075712;28;20445;-77
2022/03/30 04:52:58;;;;;;;57.03;27.00;;;;;;;3.98;nan;98686.53;5074803;28;20071;-76
2022/03/30 04:55:26;;;;;;;55.10;27.40;;;;;;;3.98;nan;98683.84;5075635;28;20066;-79
2022/03/30 04:57:54;;;;;;;57.00;29.75;;;;;;;4.05;nan;98682.63;5075897;28;20131;-76
2022/03/30 05:00:22;;;;;;;62.80;30.88;;;;;;;4.11;nan;98687.69;5075613;28;20064;-76
2022/03/30 05:02:50;;;;;;;70.43;33.55;;;;;;;4.19;nan;98692.66;5075629;28;20052;-75
2022/03/30 05:05:22;;;;;;;67.15;33.22;;;;;;;4.13;nan;98695.63;5075371;28;20685;-80
2022/03/30 05:07:49;;;;;;;63.22;33.03;;;;;;;4.11;nan;98690.38;5073700;28;20052;-77
2022/03/30 05:10:17;;;;;;;69.88;33.53;;;;;;;4.17;nan;98699.88;5073277;28;20053;-76
2022/03/30 05:12:45;;;;;;;62.53;31.42;;;;;;;4.17;nan;98703.44;5075794;28;20150;-78
2022/03/30 05:15:13;;;;;;;72.38;34.05;;;;;;;4.26;nan;98699.41;5075901;28;20045;-77
2022/03/30 05:17:43;;;;;;;56.78;30.05;;;;;;;4.25;nan;98695.03;5079562;28;20097;-77
2022/03/30 05:20:12;;;;;;;60.72;29.98;;;;;;;4.18;nan;98693.59;5095328;28;20139;-76
2022/03/30 05:22:41;;;;;;;65.75;34.13;;;;;;;4.24;nan;98697.78;5081966;28;20121;-78
2022/03/30 05:25:10;;;;;;;71.35;32.25;;;;;;;4.24;nan;98701.31;5075374;28;20118;-77
2022/03/30 05:27:39;;;;;;;71.20;32.22;;;;;;;4.24;nan;98701.31;5075471;28;20542;-77
2022/03/30 05:30:08;;;;;;;95.72;40.45;;;;;;;4.32;nan;98699.16;5075281;28;20072;-79
2022/03/30 05:32:36;;;;;;;103.65;41.90;;;;;;;4.30;nan;98703.72;5075185;28;20132;-76
2022/03/30 05:35:04;;;;;;;100.25;42.05;;;;;;;4.40;nan;98698.75;5074844;28;20450;-77
2022/03/30 05:37:32;;;;;;;121.32;45.28;;;;;;;4.26;nan;98699.41;5075256;28;20065;-77
2022/03/30 05:40:04;;;;;;;89.65;38.00;;;;;;;4.27;nan;98706.50;5075165;28;20040;-77
2022/03/30 05:42:31;;;;;;;93.63;40.42;;;;;;;4.43;nan;98700.41;5077202;28;20052;-80
2022/03/30 05:45:00;;;;;;;126.45;47.83;;;;;;;4.48;nan;98699.22;5075286;28;20052;-80
2022/03/30 05:47:28;;;;;;;97.43;41.83;;;;;;;4.41;nan;98700.47;5075062;28;20091;-81
2022/03/30 05:49:56;;;;;;;77.70;37.58;;;;;;;4.55;nan;98705.16;5074607;28;20040;-77
2022/03/30 05:52:24;;;;;;;98.97;41.28;;;;;;;4.62;nan;98697.69;5075081;28;20131;-78
2022/03/30 05:54:52;;;;;;;85.32;35.83;;;;;;;4.70;nan;98700.00;5075005;28;20523;-81
2022/03/30 05:57:21;;;;;;;83.90;38.38;;;;;;;4.77;nan;98693.38;5075003;28;20067;-78
2022/03/30 05:59:49;;;;;;;69.90;33.63;;;;;;;4.86;nan;98697.38;5074766;28;20135;-77
2022/03/30 06:02:17;;;;;;;64.65;31.70;;;;;;;4.66;nan;98691.25;5074651;28;20072;-82
2022/03/30 06:04:45;;;;;;;62.75;30.70;;;;;;;4.75;nan;98687.25;5074407;28;20037;-82
2022/03/30 06:07:13;;;;;;;61.15;29.95;;;;;;;4.95;nan;98693.38;5074563;28;20120;-79
2022/03/30 06:09:41;;;;;;;63.53;30.33;;;;;;;4.95;nan;98683.56;5074761;28;20049;-78
2022/03/30 06:12:09;;;;;;;73.00;33.83;;;;;;;5.08;nan;98681.09;5074304;28;20139;-80
2022/03/30 06:14:39;;;;;;;67.85;34.58;;;;;;;5.10;nan;98684.56;5074542;28;20495;-83
2022/03/30 06:17:07;;;;;;;68.07;34.17;;;;;;;5.00;nan;98686.84;5074238;28;20045;-82
2022/03/30 06:19:35;;;;;;;62.67;32.03;;;;;;;4.76;nan;98687.16;5093491;28;20426;-81
2022/03/30 06:22:08;;;;;;;73.55;33.85;;;;;;;5.06;nan;98680.28;5086063;28;20047;-82
2022/03/30 06:24:36;;;;;;;65.22;32.40;;;;;;;5.09;nan;98677.47;5075571;28;20487;-80
2022/03/30 06:27:05;;;;;;;72.10;32.83;;;;;;;5.19;nan;98680.53;5074221;28;20072;-82
2022/03/30 06:29:33;;;;;;;70.95;34.25;;;;;;;5.28;nan;98677.34;5074192;28;20049;-76
2022/03/30 06:32:03;;;;;;;71.10;32.97;;;;;;;5.29;nan;98679.09;5074131;28;20040;-80
2022/03/30 06:34:31;;;;;;;66.45;32.53;;;;;;;5.41;nan;98679.41;5073885;28;20045;-80
2022/03/30 06:36:59;;;;;;;78.13;35.85;;;;;;;5.28;nan;98671.16;5073952;28;20040;-77
2022/03/30 06:39:26;;;;;;;61.00;31.10;;;;;;;5.36;nan;98677.84;5074094;28;20048;-78
2022/03/30 06:41:56;;;;;;;67.25;33.25;;;;;;;5.56;nan;98672.34;5074198;28;20044;-81
2022/03/30 06:44:23;;;;;;;64.40;32.22;;;;;;;5.54;nan;98669.75;5074025;28;20044;-80
2022/03/30 06:46:51;;;;;;;66.78;32.15;;;;;;;5.47;nan;98668.34;5070021;28;20044;-77
2022/03/30 06:49:20;;;;;;;62.50;31.77;;;;;;;5.81;nan;98666.50;5070268;28;20075;-79
2022/03/30 06:51:52;;;;;;;65.35;31.90;;;;;;;5.69;nan;98672.53;5071788;28;20052;-81
2022/03/30 06:54:19;;;;;;;61.58;31.38;;;;;;;5.79;nan;98671.94;5070165;28;20056;-76
2022/03/30 06:56:47;;;;;;;54.95;30.20;;;;;;;5.87;nan;98671.53;5070278;28;20415;-76
2022/03/30 06:59:15;;;;;;;58.15;29.42;;;;;;;5.97;nan;98677.25;5070226;28;20531;-82
2022/03/30 07:01:43;;;;;;;58.38;29.75;;;;;;;5.93;nan;98675.69;5069664;28;20131;-80
2022/03/30 07:04:10;;;;;;;59.42;31.05;;;;;;;6.11;nan;98675.63;5069768;28;20775;-77
2022/03/30 07:10:14;;;;;;;60.13;31.40;;;;;;;6.13;nan;98687.13;5070261;28;20055;-78
2022/03/30 07:12:13;;;;;;;60.63;31.83;;;;;;;6.35;nan;98679.59;5070550;28;20075;-83
2022/03/30 07:14:40;;;;;;;62.85;30.98;;;;;;;6.28;nan;98694.28;5052069;28;20109;-79
2022/03/30 07:17:08;;;;;;;56.75;31.15;;;;;;;6.42;nan;98689.97;5069504;28;20118;-76
2022/03/30 07:19:37;;;;;;;64.45;32.10;;;;;;;6.59;nan;98694.34;5071493;28;20097;-77
2022/03/30 07:22:06;;;;;;;60.28;30.48;;;;;;;6.63;nan;98702.13;5081238;28;20128;-80
2022/03/30 07:24:36;;;;;;;63.60;30.05;;;;;;;6.82;nan;98695.69;5067128;28;20110;-76
2022/03/30 07:27:07;;;;;;;58.10;28.95;;;;;;;6.83;nan;98697.41;5069494;28;20048;-79
2022/03/30 07:29:34;;;;;;;59.15;30.98;;;;;;;6.82;nan;98695.69;5048493;28;20040;-78
2022/03/30 07:32:02;;;;;;;63.97;32.13;;;;;;;6.92;nan;98696.88;5069345;28;20108;-80
2022/03/30 07:34:31;;;;;;;56.45;30.48;;;;;;;6.99;nan;98688.44;5051320;28;20104;-78
2022/03/30 07:36:59;;;;;;;59.67;31.55;;;;;;;6.88;nan;98689.06;5068846;28;20083;-78
2022/03/30 07:39:28;;;;;;;58.55;30.15;;;;;;;6.49;nan;98694.88;5069052;28;20064;-79
2022/03/30 07:41:56;;;;;;;59.40;30.95;;;;;;;6.52;nan;98691.16;5067379;28;20052;-77
2022/03/30 07:44:24;;;;;;;55.78;30.63;;;;;;;6.82;nan;98693.00;5068877;28;20051;-76
2022/03/30 07:46:51;;;;;;;62.38;30.63;;;;;;;6.70;nan;98689.22;5068350;28;20483;-77
2022/03/30 07:49:19;;;;;;;57.40;31.60;;;;;;;7.24;nan;98690.50;5059031;28;20104;-82
2022/03/30 07:51:47;;;;;;;55.30;30.92;;;;;;;7.03;nan;98692.66;5061861;28;20364;-77
2022/03/30 07:54:15;;;;;;;57.38;30.42;;;;;;;7.36;nan;98688.88;5078225;28;20407;-76
2022/03/30 07:56:44;;;;;;;57.38;29.75;;;;;;;7.33;nan;98683.72;5073153;28;20044;-77
2022/03/30 07:59:13;;;;;;;52.53;27.45;;;;;;;7.57;nan;98685.84;5079965;28;20044;-80
2022/03/30 08:01:41;;;;;;;54.80;27.63;;;;;;;7.44;nan;98683.91;5078587;28;20048;-78
2022/03/30 08:04:09;;;;;;;54.88;27.95;;;;;;;7.63;nan;98686.31;5077628;28;20560;-77
2022/03/30 08:06:37;;;;;;;54.15;27.00;;;;;;;7.94;nan;98684.38;5079505;28;20053;-75
2022/03/30 08:09:05;;;;;;;52.63;27.65;;;;;;;8.05;nan;98686.38;5079651;28;20049;-76
2022/03/30 08:11:33;;;;;;;53.88;26.20;;;;;;;7.73;nan;98683.91;5070694;28;20048;-78
2022/03/30 08:14:02;;;;;;;47.70;25.48;;;;;;;8.11;nan;98680.59;5068622;28;20053;-76
2022/03/30 08:16:32;;;;;;;49.50;26.98;;;;;;;7.90;nan;98682.84;5068745;28;20040;-80
2022/03/30 08:19:00;;;;;;;52.83;26.77;;;;;;;8.09;nan;98674.47;5084063;28;20052;-76
2022/03/30 08:24:12;;;;;;;50.83;26.17;;;;;;;8.30;nan;98682.06;5068888;28;20045;-76
2022/03/30 08:26:41;;;;;;;46.65;23.98;;;;;;;8.32;nan;98679.31;5068343;28;20052;-77
2022/03/30 08:29:11;;;;;;;49.03;25.45;;;;;;;8.41;nan;98679.56;5068850;28;20065;-79
2022/03/30 08:31:39;;;;;;;49.63;25.27;;;;;;;8.24;nan;98683.38;5069313;28;20045;-79
2022/03/30 08:34:07;;;;;;;46.75;23.95;;;;;;;8.01;nan;98687.53;5069338;28;20097;-76
2022/03/30 08:36:34;;;;;;;43.78;23.83;;;;;;;8.30;nan;98674.00;5068903;28;20049;-80
2022/03/30 08:39:05;;;;;;;43.30;23.98;;;;;;;8.43;nan;98674.06;5068506;28;20132;-78
2022/03/30 08:41:33;;;;;;;41.10;21.13;;;;;;;8.25;nan;98665.38;5072091;28;20037;-76
2022/03/30 08:44:01;;;;;;;39.28;21.98;;;;;;;8.36;nan;98662.88;5076044;28;20036;-76
2022/03/30 08:46:30;;;;;;;40.55;21.02;;;;;;;8.30;nan;98667.78;5076280;28;20399;-81
2022/03/30 08:48:58;;;;;;;40.22;22.20;;;;;;;8.52;nan;98662.72;5076096;28;20048;-78
2022/03/30 08:51:27;;;;;;;39.35;20.23;;;;;;;8.70;nan;98665.16;5076169;28;20102;-78
2022/03/30 08:53:55;;;;;;;41.35;22.30;;;;;;;8.68;nan;98659.88;5057241;28;20044;-78
2022/03/30 08:56:24;;;;;;;43.42;22.42;;;;;;;8.47;nan;98666.66;5069416;28;20040;-78
2022/03/30 08:58:55;;;;;;;41.08;22.30;;;;;;;8.46;nan;98662.25;5055749;28;20049;-76
2022/03/30 09:01:24;;;;;;;47.95;24.45;;;;;;;8.61;nan;98653.19;5056901;28;20037;-80
2022/03/30 09:04:00;;;;;;;43.13;24.23;;;;;;;8.57;nan;98643.59;5056394;28;20063;-79
2022/03/30 09:06:31;;;;;;;;;;;;;;;8.49;nan;98654.84;5057997;28;20159;-81
2022/03/30 09:08:59;;;;;;;39.35;22.42;;;;;;;8.45;nan;98655.16;5061337;28;20298;-77
2022/03/30 09:11:29;;;;;;;41.30;21.13;;;;;;;8.21;nan;98653.09;5075508;28;20124;-80
2022/03/30 09:14:02;;;;;;;38.70;21.13;;;;;;;8.37;nan;98648.44;5076193;28;20060;-79
2022/03/30 09:16:38;;;;;;;40.42;22.50;;;;;;;8.37;nan;98644.88;5075504;28;20041;-79
2022/03/30 09:19:20;;;;;;;42.65;22.40;;;;;;;8.35;nan;98644.13;5074722;28;20053;-80
2022/03/30 09:21:50;;;;;;;46.63;22.27;;;;;;;8.54;nan;98649.19;5073735;28;20040;-81
2022/03/30 09:24:24;;;;;;;47.15;23.83;;;;;;;8.45;nan;98639.00;5075451;28;20040;-81
2022/03/30 09:26:52;;;;;;;52.72;25.10;;;;;;;8.41;nan;98646.41;5074945;28;20491;-81
2022/03/30 09:29:21;;;;;;;53.03;27.35;;;;;;;8.51;nan;98635.94;5074427;28;20127;-82
2022/03/30 09:31:51;;;;;;;48.60;25.15;;;;;;;8.38;nan;98634.03;5074691;28;20576;-81
2022/03/30 09:34:21;;;;;;;47.65;24.70;;;;;;;8.39;nan;98635.75;5074683;28;20048;-82
2022/03/30 09:36:52;;;;;;;57.97;29.23;;;;;;;8.57;nan;98632.81;5056781;28;20044;-81
2022/03/30 09:39:31;;;;;;;50.00;26.10;;;;;;;8.51;nan;98636.78;5075570;28;20048;-77
2022/03/30 09:42:00;;;;;;;48.38;26.20;;;;;;;8.55;nan;98629.38;5074815;28;20097;-79
2022/03/30 09:44:29;;;;;;;47.35;24.42;;;;;;;8.40;nan;98632.09;5074285;28;20476;-77
2022/03/30 09:47:05;;;;;;;49.42;25.52;;;;;;;8.67;nan;98625.84;5074297;28;20055;-80
2022/03/30 09:49:42;;;;;;;;;;;;;;;8.93;nan;98622.31;5075060;28;20040;-78
2022/03/30 09:52:17;;;;;;;;;;;;;;;8.94;nan;98622.22;5073123;28;19920;-76
2022/03/30 09:54:50;;;;;;;48.30;19.75;;;;;;;9.20;nan;98614.19;5071295;28;19927;-78
2022/03/30 09:57:21;;;;;;;40.10;19.52;;;;;;;9.40;nan;98612.78;5055781;28;20064;-77
2022/03/30 10:00:07;;;;;;;30.40;15.07;;;;;;;9.47;nan;98615.03;5073910;28;20474;-76
2022/03/30 10:02:37;;;;;;;30.08;13.68;;;;;;;9.53;nan;98607.34;5073019;28;20040;-76
2022/03/30 10:05:07;;;;;;;36.35;17.70;;;;;;;9.64;nan;98611.97;5073971;28;20111;-80
2022/03/30 10:07:36;;;;;;;25.90;12.85;;;;;;;9.55;nan;98613.47;5073862;28;20048;-78
2022/03/30 10:10:05;;;;;;;27.05;14.43;;;;;;;9.57;nan;98603.44;5073531;28;20068;-76
2022/03/30 10:12:32;;;;;;;28.52;13.30;;;;;;;9.65;nan;98607.44;5073241;28;20124;-77
2022/03/30 10:15:00;;;;;;;29.65;14.82;;;;;;;9.77;nan;98597.59;5073604;28;20055;-79
2022/03/30 10:17:29;;;;;;;31.02;14.10;;;;;;;9.82;nan;98595.44;5073681;28;20044;-80
2022/03/30 10:20:01;;;;;;;25.55;13.55;;;;;;;9.97;nan;98596.13;5073424;28;20144;-76
2022/03/30 10:23:00;;;;;;;25.92;13.05;;;;;;;9.82;nan;98598.97;5075265;28;20105;-81
2022/03/30 10:25:49;;;;;;;26.77;13.35;;;;;;;9.46;nan;98599.81;5073448;28;20086;-76
2022/03/30 10:28:22;;;;;;;28.10;13.45;;;;;;;9.86;nan;98594.25;5073109;28;20045;-79
2022/03/30 10:30:52;;;;;;;28.15;14.52;;;;;;;9.83;nan;98581.81;5074179;28;20049;-76
2022/03/30 10:33:31;;;;;;;40.13;16.60;;;;;;;9.70;nan;98589.09;5074602;28;20075;-79
2022/03/30 10:36:00;;;;;;;29.10;13.35;;;;;;;9.58;nan;98588.16;5074626;28;20044;-76
2022/03/30 10:38:30;;;;;;;27.80;12.65;;;;;;;9.61;nan;98585.22;5073174;28;20044;-78
2022/03/30 10:41:08;;;;;;;28.65;14.45;;;;;;;9.78;nan;98577.72;5072650;28;20568;-80
2022/03/30 10:43:36;;;;;;;29.00;15.15;;;;;;;10.01;nan;98576.06;5073399;28;20106;-80
2022/03/30 10:46:04;;;;;;;25.08;13.48;;;;;;;9.97;nan;98575.41;5073011;28;20050;-80
2022/03/30 10:48:38;;;;;;;30.88;15.18;;;;;;;9.79;nan;98577.63;5072961;28;20079;-76
2022/03/30 10:51:18;;;;;;;23.95;12.65;;;;;;;9.78;nan;98570.53;5073055;28;20071;-79
2022/03/30 10:53:49;;;;;;;26.30;13.88;;;;;;;9.70;nan;98571.06;5072524;28;20403;-80
2022/03/30 10:56:28;;;;;;;29.33;12.85;;;;;;;9.70;nan;98571.06;5073100;28;20048;-80
2022/03/30 10:59:15;;;;;;;26.48;13.05;;;;;;;9.66;nan;98571.44;5055101;28;20056;-78
2022/03/30 11:01:43;;;;;;;33.88;16.92;;;;;;;9.63;nan;98564.41;5054954;28;20080;-80
2022/03/30 11:04:25;;;;;;;29.05;14.32;;;;;;;9.56;nan;98566.69;5072601;28;20056;-77
2022/03/30 11:07:41;;;;;;;29.85;13.63;;;;;;;9.61;nan;98570.91;5072359;28;20408;-78
2022/03/30 11:10:18;;;;;;;27.63;11.63;;;;;;;9.35;nan;98570.94;5072584;28;20455;-78
2022/03/30 11:13:04;;;;;;;26.45;12.02;;;;;;;9.39;nan;98569.75;5073193;28;20516;-76
2022/03/30 11:15:55;;;;;;;23.17;10.38;;;;;;;9.57;nan;98560.31;5073181;28;20478;-76
2022/03/30 11:18:24;;;;;;;30.92;12.13;;;;;;;9.57;nan;98567.56;5062033;28;20075;-81
2022/03/30 11:21:20;;;;;;;27.98;13.10;;;;;;;9.79;nan;98565.97;5072764;28;20403;-78
2022/03/30 11:24:04;;;;;;;21.25;8.73;;;;;;;10.05;nan;98568.59;5055589;28;20064;-76
2022/03/30 11:27:22;;;;;;;24.50;9.98;;;;;;;10.27;nan;98570.53;5072396;28;20051;-78
2022/03/30 11:29:57;;;;;;;25.15;9.98;;;;;;;10.37;nan;98562.63;5073903;28;20052;-77
2022/03/30 11:32:38;;;;;;;30.38;12.82;;;;;;;10.48;nan;98569.94;5073973;28;20052;-78
2022/03/30 11:35:07;;;;;;;30.80;13.30;;;;;;;10.65;nan;98563.25;5050782;28;20048;-80
2022/03/30 11:37:39;;;;;;;20.63;9.15;;;;;;;10.47;nan;98565.50;5067930;28;20121;-76
2022/03/30 11:40:09;;;;;;;28.23;11.57;;;;;;;10.17;nan;98561.41;5068835;28;20193;-79
2022/03/30 11:42:37;;;;;;;22.95;10.32;;;;;;;10.29;nan;98560.47;5066682;28;20048;-75
2022/03/30 11:45:14;;;;;;;21.75;9.05;;;;;;;10.35;nan;98562.72;5071931;28;20044;-76
2022/03/30 11:47:43;;;;;;;27.67;11.68;;;;;;;10.56;nan;98557.53;5073260;28;20146;-76
2022/03/30 11:50:12;;;;;;;32.75;14.57;;;;;;;10.71;nan;98557.38;5073669;28;20064;-76
2022/03/30 11:52:42;;;;;;;23.55;10.50;;;;;;;10.81;nan;98549.38;5055922;28;20496;-77
2022/03/30 11:55:10;;;;;;;22.63;9.85;;;;;;;10.89;nan;98560.47;5073215;28;20154;-78
2022/03/30 11:57:43;;;;;;;19.85;9.20;;;;;;;10.73;nan;98553.53;5055237;28;20066;-77
2022/03/30 12:00:13;;;;;;;23.73;9.27;;;;;;;10.59;nan;98556.47;5073020;28;20048;-78
2022/03/30 12:02:43;;;;;;;25.92;9.88;;;;;;;10.57;nan;98555.72;5073920;28;20044;-78